createdAt,value
2022-09-23T00:15:33.296Z,7.35
2022-09-23T00:18:57.745Z,7.34
2022-09-23T00:22:28.652Z,7.35
2022-09-23T00:25:51.644Z,7.34
2022-09-23T00:43:06.831Z,7.37
2022-09-23T00:46:34.699Z,7.33
2022-09-23T01:03:33.717Z,7.29
2022-09-23T01:07:22.807Z,7.24
2022-09-23T01:25:14.618Z,7.20
2022-09-23T01:28:47.406Z,7.15
2022-09-23T01:31:59.497Z,7.14
2022-09-23T01:39:25.353Z,7.14
2022-09-23T01:43:03.809Z,7.09
2022-09-23T01:46:29.333Z,7.08
2022-09-23T02:00:46.855Z,7.08
2022-09-23T02:04:09.449Z,7.06
2022-09-23T02:07:46.324Z,7.06
2022-09-23T02:21:50.599Z,7.07
2022-09-23T02:25:19.952Z,7.05
2022-09-23T02:29:10.415Z,7.04
2022-09-23T02:48:07.220Z,7.06
2022-09-23T02:51:09.294Z,7.03
2022-09-23T02:54:28.758Z,7.02
2022-09-23T02:57:38.977Z,7.01
2022-09-23T03:01:36.887Z,7.00
2022-09-23T03:22:48.295Z,6.99
2022-09-23T03:26:17.479Z,6.97
2022-09-23T03:29:30.920Z,6.97
2022-09-23T03:53:56.453Z,6.87
2022-09-23T03:57:06.916Z,6.82
2022-09-23T04:00:37.723Z,6.80
2022-09-23T04:17:48.735Z,6.69
2022-09-23T04:21:20.582Z,6.65
2022-09-23T04:24:30.934Z,6.60
2022-09-23T04:27:43.203Z,6.57
2022-09-23T04:30:48.975Z,6.54
2022-09-23T05:41:08.494Z,6.52
2022-09-23T05:44:48.722Z,6.57
2022-09-23T05:56:41.360Z,6.82
2022-09-23T06:00:18.104Z,6.94
2022-09-23T06:04:06.995Z,7.03
2022-09-23T11:45:30.508Z,12.06
2022-09-23T11:48:46.040Z,12.14
2022-09-23T11:51:32.097Z,12.21
2022-09-23T11:54:06.005Z,12.34
2022-09-23T11:56:41.666Z,12.46
2022-09-23T11:59:38.081Z,12.57
2022-09-23T12:02:20.858Z,12.68
2022-09-23T12:05:03.259Z,12.79
2022-09-23T12:07:45.087Z,12.86
2022-09-23T12:10:14.377Z,12.91
2022-09-23T12:12:49.088Z,12.97
2022-09-23T12:15:51.468Z,13.00
2022-09-23T12:18:54.178Z,13.02
2022-09-23T12:21:49.409Z,12.98
2022-09-23T12:24:43.905Z,12.84
2022-09-23T12:27:28.044Z,12.75
2022-09-23T12:30:01.692Z,12.64
2022-09-23T12:32:31.048Z,12.55
2022-09-23T12:35:00.596Z,12.44
2022-09-23T12:37:35.308Z,12.32
2022-09-23T12:40:19.159Z,12.19
2022-09-23T12:42:48.597Z,12.07
2022-09-23T12:45:35.527Z,11.97
2022-09-23T12:48:43.309Z,11.84
2022-09-23T12:51:20.406Z,11.72
2022-09-23T12:53:50.773Z,11.59
2022-09-23T12:56:18.887Z,11.52
2022-09-23T12:58:46.938Z,11.50
2022-09-23T13:01:15.370Z,11.52
2022-09-23T13:04:08.971Z,11.53
2022-09-23T13:07:06.018Z,11.56
2022-09-23T13:09:43.405Z,11.56
2022-09-23T13:12:33.456Z,11.55
2022-09-23T13:15:06.387Z,11.49
2022-09-23T13:17:37.685Z,11.44
2022-09-23T13:20:43.585Z,11.39
2022-09-23T13:23:12.830Z,11.33
2022-09-23T13:25:43.380Z,11.29
2022-09-23T13:28:58.657Z,11.26
2022-09-23T13:31:26.854Z,11.27
2022-09-23T13:35:01.259Z,11.37
2022-09-23T13:37:48.539Z,11.43
2022-09-23T13:40:20.752Z,11.50
2022-09-23T13:42:55.470Z,11.54
2022-09-23T13:45:25.943Z,11.56
2022-09-23T13:48:01.055Z,11.57
2022-09-23T13:50:34.232Z,11.58
2022-09-23T13:53:10.556Z,11.61
2022-09-23T13:55:40.194Z,11.64
2022-09-23T13:58:22.549Z,11.67
2022-09-23T14:00:51.610Z,11.69
2022-09-23T14:03:36.521Z,11.71
2022-09-23T14:06:11.474Z,11.77
2022-09-23T14:08:43.145Z,11.84
2022-09-23T14:11:30.164Z,11.94
2022-09-23T14:14:00.634Z,12.05
2022-09-23T14:16:29.797Z,12.11
2022-09-23T14:19:00.488Z,12.18
2022-09-23T14:21:30.276Z,12.22
2022-09-23T14:24:11.242Z,12.21
2022-09-23T14:26:40.760Z,12.22
2022-09-23T14:29:18.864Z,12.21
2022-09-23T14:31:57.107Z,12.16
2022-09-23T14:34:44.051Z,12.11
2022-09-23T14:37:36.994Z,12.08
2022-09-23T14:40:15.283Z,12.07
2022-09-23T14:42:48.292Z,12.02
2022-09-23T14:45:22.982Z,11.97
2022-09-23T14:48:00.148Z,11.96
2022-09-23T14:50:37.304Z,11.93
2022-09-23T14:53:18.640Z,11.89
2022-09-23T14:55:47.926Z,11.84
2022-09-23T14:58:18.336Z,11.82
2022-09-23T15:00:58.716Z,11.79
2022-09-23T15:03:28.721Z,11.77
2022-09-23T15:06:09.309Z,11.75
2022-09-23T15:08:37.413Z,11.71
2022-09-23T15:11:08.377Z,11.69
2022-09-23T15:13:46.721Z,11.70
2022-09-23T15:16:16.671Z,11.69
2022-09-23T15:18:46.343Z,11.68
2022-09-23T15:21:18.551Z,11.65
2022-09-23T15:23:49.101Z,11.61
2022-09-23T15:26:25.860Z,11.56
2022-09-23T15:28:58.684Z,11.51
2022-09-23T15:31:26.958Z,11.48
2022-09-23T15:33:56.103Z,11.44
2022-09-23T15:36:27.915Z,11.40
2022-09-23T15:38:57.506Z,11.35
2022-09-23T15:41:25.592Z,11.30
2022-09-23T15:43:56.491Z,11.26
2022-09-23T15:46:27.698Z,11.21
2022-09-23T15:49:03.101Z,11.17
2022-09-23T15:51:32.097Z,11.11
2022-09-23T15:54:00.150Z,11.07
2022-09-23T15:56:28.168Z,11.03
2022-09-23T15:58:56.146Z,10.98
2022-09-23T16:01:28.782Z,10.94
2022-09-23T16:03:57.720Z,10.88
2022-09-23T16:06:27.203Z,10.84
2022-09-23T16:08:55.771Z,10.80
2022-09-23T16:11:30.019Z,10.76
2022-09-23T16:14:00.548Z,10.70
2022-09-23T16:16:28.987Z,10.63
2022-09-23T16:18:57.223Z,10.58
2022-09-23T16:21:28.142Z,10.50
2022-09-23T16:23:59.436Z,10.41
2022-09-23T16:26:33.089Z,10.34
2022-09-23T16:29:01.904Z,10.26
2022-09-23T16:31:31.326Z,10.18
2022-09-23T16:34:02.523Z,10.12
2022-09-23T16:36:33.281Z,10.03
2022-09-23T16:39:08.825Z,9.96
2022-09-23T16:41:37.242Z,9.89
2022-09-23T16:44:07.656Z,9.82
2022-09-23T16:46:35.955Z,9.74
2022-09-23T16:49:04.521Z,9.68
2022-09-23T16:51:40.224Z,9.59
2022-09-23T16:54:10.952Z,9.52
2022-09-23T16:56:45.875Z,9.45
2022-09-23T16:59:15.172Z,9.36
2022-09-23T17:02:02.297Z,9.27
2022-09-23T17:04:30.464Z,9.17
2022-09-23T17:06:59.264Z,9.09
2022-09-23T17:09:29.097Z,9.02
2022-09-23T17:12:13.831Z,8.94
2022-09-23T17:14:41.915Z,8.86
2022-09-23T17:17:09.952Z,8.81
2022-09-23T17:19:41.566Z,8.74
2022-09-23T17:22:10.085Z,8.67
2022-09-23T17:24:38.066Z,8.62
2022-09-23T17:27:06.128Z,8.57
2022-09-23T17:29:34.270Z,8.53
2022-09-23T17:32:02.723Z,8.47
2022-09-23T17:34:33.466Z,8.43
2022-09-23T17:37:02.701Z,8.39
2022-09-23T17:39:31.848Z,8.34
2022-09-23T17:41:59.896Z,8.30
2022-09-23T17:44:27.909Z,8.26
2022-09-23T17:46:55.980Z,8.19
2022-09-23T17:49:24.665Z,8.11
2022-09-23T17:51:52.619Z,8.03
2022-09-23T17:54:20.666Z,7.99
2022-09-23T17:56:48.660Z,7.96
2022-09-23T17:59:17.271Z,7.93
2022-09-23T18:01:45.409Z,7.90
2022-09-23T18:04:13.457Z,7.88
2022-09-23T18:06:41.652Z,7.86
2022-09-23T18:09:10.486Z,7.83
2022-09-23T18:11:41.471Z,7.80
2022-09-23T18:14:15.975Z,7.76
2022-09-23T18:16:46.785Z,7.73
2022-09-23T18:19:17.377Z,7.70
2022-09-23T18:21:51.440Z,7.68
2022-09-23T18:24:31.805Z,7.67
2022-09-23T18:27:01.598Z,7.65
2022-09-23T18:29:29.708Z,7.62
2022-09-23T18:31:59.547Z,7.60
2022-09-23T18:34:29.200Z,7.56
2022-09-23T18:36:57.256Z,7.55
2022-09-23T18:39:25.409Z,7.53
2022-09-23T18:41:53.493Z,7.50
2022-09-23T18:44:21.594Z,7.47
2022-09-23T18:46:49.696Z,7.46
2022-09-23T18:49:36.283Z,7.45
2022-09-23T18:52:04.157Z,7.44
2022-09-23T18:54:32.396Z,7.40
2022-09-23T18:57:00.817Z,7.38
2022-09-23T18:59:29.856Z,7.36
2022-09-23T19:01:59.215Z,7.34
2022-09-23T19:04:27.838Z,7.31
2022-09-23T19:06:57.315Z,7.29
2022-09-23T19:09:25.972Z,7.27
2022-09-23T19:11:54.126Z,7.24
2022-09-23T19:14:22.416Z,7.20
2022-09-23T19:16:51.049Z,7.16
2022-09-23T19:19:19.375Z,7.13
2022-09-23T19:21:47.497Z,7.11
2022-09-23T19:24:20.171Z,7.08
2022-09-23T19:26:48.989Z,7.06
2022-09-23T19:29:19.792Z,7.05
2022-09-23T19:31:48.865Z,7.04
2022-09-23T19:34:26.174Z,7.02
2022-09-23T19:36:57.491Z,7.02
2022-09-23T19:39:28.457Z,7.01
2022-09-23T19:41:56.561Z,7.00
2022-09-23T19:44:26.933Z,6.99
2022-09-23T19:46:57.546Z,6.99
2022-09-23T19:49:26.025Z,7.00
2022-09-23T19:51:56.191Z,6.99
2022-09-23T19:54:27.659Z,6.99
2022-09-23T19:56:56.152Z,6.99
2022-09-23T19:59:26.603Z,6.98
2022-09-23T20:01:55.191Z,6.98
2022-09-23T20:04:23.557Z,6.97
2022-09-23T20:06:51.986Z,6.96
2022-09-23T20:09:20.278Z,6.95
2022-09-23T20:11:48.411Z,6.93
2022-09-23T20:14:17.412Z,6.91
2022-09-23T20:16:46.404Z,6.89
2022-09-23T20:19:14.933Z,6.88
2022-09-23T20:21:43.013Z,6.87
2022-09-23T20:24:12.387Z,6.85
2022-09-23T20:26:59.052Z,6.83
2022-09-23T20:29:27.230Z,6.79
2022-09-23T20:31:57.086Z,6.77
2022-09-23T20:34:25.189Z,6.74
2022-09-23T20:36:53.275Z,6.70
2022-09-23T20:39:21.950Z,6.68
2022-09-23T20:41:50.580Z,6.64
2022-09-23T20:44:18.677Z,6.61
2022-09-23T20:46:48.948Z,6.58
2022-09-23T20:49:17.809Z,6.56
2022-09-23T20:51:48.343Z,6.53
2022-09-23T20:54:21.048Z,6.51
2022-09-23T20:56:49.062Z,6.49
2022-09-23T20:59:18.405Z,6.48
2022-09-23T21:01:46.895Z,6.47
2022-09-23T21:04:15.373Z,6.46
2022-09-23T21:06:43.428Z,6.45
2022-09-23T21:09:11.606Z,6.45
2022-09-23T21:11:39.638Z,6.45
2022-09-23T21:14:07.875Z,6.41
2022-09-23T21:16:36.146Z,6.37
2022-09-23T21:19:04.307Z,6.34
2022-09-23T21:21:32.303Z,6.34
2022-09-23T21:24:23.683Z,6.34
2022-09-23T21:26:50.587Z,6.34
2022-09-23T21:29:18.689Z,6.35
2022-09-23T21:31:50.058Z,6.36
2022-09-23T21:34:19.361Z,6.36
2022-09-23T21:36:48.195Z,6.35
2022-09-23T21:39:16.740Z,6.35
2022-09-23T21:41:45.090Z,6.34
2022-09-23T21:44:13.258Z,6.32
2022-09-23T21:46:41.586Z,6.32
2022-09-23T21:49:09.955Z,6.31
2022-09-23T21:51:43.359Z,6.31
2022-09-23T21:54:17.230Z,6.29
2022-09-23T21:56:45.443Z,6.29
2022-09-23T21:59:13.437Z,6.28
2022-09-23T22:01:45.198Z,6.26
2022-09-23T22:04:18.180Z,6.24
2022-09-23T22:06:46.906Z,6.22
2022-09-23T22:09:17.967Z,6.18
2022-09-23T22:12:05.092Z,6.15
2022-09-23T22:14:34.270Z,6.12
2022-09-23T22:17:05.308Z,6.09
2022-09-23T22:19:40.299Z,6.08
2022-09-23T22:22:13.253Z,6.07
2022-09-23T22:24:42.881Z,6.06
2022-09-23T22:27:13.357Z,6.04
2022-09-23T22:30:00.331Z,6.01
2022-09-23T22:32:54.240Z,5.99
2022-09-23T22:35:23.258Z,5.96
2022-09-23T22:37:51.473Z,5.93
2022-09-23T22:40:19.572Z,5.91
2022-09-23T22:42:48.608Z,5.89
2022-09-23T22:45:16.791Z,5.87
2022-09-23T22:47:46.023Z,5.86
2022-09-23T22:50:14.839Z,5.84
2022-09-23T22:52:43.423Z,5.83
2022-09-23T22:55:12.670Z,5.81
2022-09-23T22:57:40.984Z,5.78
2022-09-23T23:00:12.738Z,5.76
2022-09-23T23:02:42.545Z,5.75
2022-09-23T23:05:11.275Z,5.74
2022-09-23T23:07:39.249Z,5.73
2022-09-23T23:10:10.607Z,5.72
2022-09-23T23:12:39.706Z,5.71
2022-09-23T23:15:12.146Z,5.70
2022-09-23T23:17:41.434Z,5.71
2022-09-23T23:20:09.664Z,5.71
2022-09-23T23:22:37.731Z,5.71
2022-09-23T23:25:06.274Z,5.71
2022-09-23T23:27:34.735Z,5.70
2022-09-23T23:30:02.853Z,5.70
2022-09-23T23:32:31.268Z,5.71
2022-09-23T23:34:59.236Z,5.71
2022-09-23T23:37:29.416Z,5.71
2022-09-23T23:39:57.485Z,5.71
2022-09-23T23:42:27.237Z,5.71
2022-09-23T23:44:55.341Z,5.70
2022-09-23T23:47:24.134Z,5.70
2022-09-23T23:49:52.563Z,5.70
2022-09-23T23:52:20.668Z,5.70
2022-09-23T23:54:48.758Z,5.70
2022-09-23T23:57:16.699Z,5.69
2022-09-23T23:59:44.683Z,5.68
